sensor_id;sensor_type;location;lat;lon;timestamp;pressure;altitude;pressure_sealevel;temperature;humidity
11114;BME280;5610;52.154;9.198;2023-01-10T00:02:32;100022.59;;;8.05;100.00
11114;BME280;5610;52.154;9.198;2023-01-10T00:05:18;100029.28;;;7.96;100.00
11114;BME280;5610;52.154;9.198;2023-01-10T00:08:04;100030.72;;;8.02;100.00
11114;BME280;5610;52.154;9.198;2023-01-10T00:10:50;100039.06;;;8.10;100.00
11114;BME280;5610;52.154;9.198;2023-01-10T00:13:35;100044.00;;;8.02;100.00
11114;BME280;5610;52.154;9.198;2023-01-10T00:16:21;100049.66;;;7.95;100.00
11114;BME280;5610;52.154;9.198;2023-01-10T00:19:06;100055.66;;;7.99;100.00
11114;BME280;5610;52.154;9.198;2023-01-10T00:21:53;100059.81;;;8.03;100.00
11114;BME280;5610;52.154;9.198;2023-01-10T00:24:45;100065.69;;;8.08;100.00
11114;BME280;5610;52.154;9.198;2023-01-10T00:27:30;100071.31;;;8.18;100.00
11114;BME280;5610;52.154;9.198;2023-01-10T00:30:16;100080.59;;;7.81;100.00
11114;BME280;5610;52.154;9.198;2023-01-10T00:33:02;100081.75;;;7.77;100.00
11114;BME280;5610;52.154;9.198;2023-01-10T00:35:48;100095.81;;;7.93;100.00
11114;BME280;5610;52.154;9.198;2023-01-10T00:38:34;100102.06;;;7.92;100.00
11114;BME280;5610;52.154;9.198;2023-01-10T00:41:20;100097.13;;;7.86;100.00
11114;BME280;5610;52.154;9.198;2023-01-10T00:44:24;100097.75;;;8.05;100.00
11114;BME280;5610;52.154;9.198;2023-01-10T00:47:10;100119.94;;;7.88;100.00
11114;BME280;5610;52.154;9.198;2023-01-10T00:49:57;100126.06;;;7.75;100.00
11114;BME280;5610;52.154;9.198;2023-01-10T00:52:42;100128.34;;;7.81;100.00
11114;BME280;5610;52.154;9.198;2023-01-10T00:55:28;100130.84;;;7.84;100.00
11114;BME280;5610;52.154;9.198;2023-01-10T00:58:14;100137.75;;;7.86;100.00
11114;BME280;5610;52.154;9.198;2023-01-10T01:00:59;100144.63;;;7.75;100.00
11114;BME280;5610;52.154;9.198;2023-01-10T01:03:45;100156.06;;;7.75;100.00
11114;BME280;5610;52.154;9.198;2023-01-10T01:06:32;100160.38;;;7.78;100.00
11114;BME280;5610;52.154;9.198;2023-01-10T01:09:17;100165.94;;;7.73;100.00
11114;BME280;5610;52.154;9.198;2023-01-10T01:12:03;100171.63;;;7.81;100.00
11114;BME280;5610;52.154;9.198;2023-01-10T01:14:48;100177.38;;;7.74;100.00
11114;BME280;5610;52.154;9.198;2023-01-10T01:17:34;100180.63;;;7.79;100.00
11114;BME280;5610;52.154;9.198;2023-01-10T01:20:19;100189.44;;;7.79;100.00
11114;BME280;5610;52.154;9.198;2023-01-10T01:23:07;100193.47;;;7.86;100.00
11114;BME280;5610;52.154;9.198;2023-01-10T01:25:52;100200.66;;;7.84;100.00
11114;BME280;5610;52.154;9.198;2023-01-10T01:28:38;100203.56;;;7.80;100.00
11114;BME280;5610;52.154;9.198;2023-01-10T01:31:24;100210.06;;;7.90;100.00
11114;BME280;5610;52.154;9.198;2023-01-10T01:34:09;100215.31;;;7.76;100.00
11114;BME280;5610;52.154;9.198;2023-01-10T01:36:55;100227.94;;;7.86;100.00
11114;BME280;5610;52.154;9.198;2023-01-10T01:39:42;100228.47;;;7.77;100.00
11114;BME280;5610;52.154;9.198;2023-01-10T01:42:31;100240.19;;;7.73;100.00
11114;BME280;5610;52.154;9.198;2023-01-10T01:45:38;100241.13;;;7.56;100.00
11114;BME280;5610;52.154;9.198;2023-01-10T01:48:31;100253.44;;;7.73;100.00
11114;BME280;5610;52.154;9.198;2023-01-10T01:51:22;100261.63;;;7.53;100.00
11114;BME280;5610;52.154;9.198;2023-01-10T01:54:11;100275.94;;;7.66;100.00
11114;BME280;5610;52.154;9.198;2023-01-10T01:57:01;100277.31;;;7.73;100.00
11114;BME280;5610;52.154;9.198;2023-01-10T01:59:50;100285.59;;;7.67;100.00
11114;BME280;5610;52.154;9.198;2023-01-10T02:02:40;100285.78;;;7.64;100.00
11114;BME280;5610;52.154;9.198;2023-01-10T02:05:29;100301.06;;;7.59;100.00
11114;BME280;5610;52.154;9.198;2023-01-10T02:08:16;100299.78;;;7.50;100.00
11114;BME280;5610;52.154;9.198;2023-01-10T02:11:07;100306.38;;;7.59;100.00
11114;BME280;5610;52.154;9.198;2023-01-10T02:13:55;100307.84;;;7.64;100.00
11114;BME280;5610;52.154;9.198;2023-01-10T02:16:42;100325.34;;;7.51;100.00
11114;BME280;5610;52.154;9.198;2023-01-10T02:19:34;100323.75;;;7.49;100.00
11114;BME280;5610;52.154;9.198;2023-01-10T02:23:20;100325.66;;;7.29;100.00
11114;BME280;5610;52.154;9.198;2023-01-10T02:26:38;100328.75;;;7.37;100.00
11114;BME280;5610;52.154;9.198;2023-01-10T02:32:57;100348.28;;;7.19;100.00
11114;BME280;5610;52.154;9.198;2023-01-10T02:36:08;100347.88;;;7.27;100.00
11114;BME280;5610;52.154;9.198;2023-01-10T02:39:03;100352.84;;;7.33;100.00
11114;BME280;5610;52.154;9.198;2023-01-10T02:41:54;100354.97;;;7.26;100.00
11114;BME280;5610;52.154;9.198;2023-01-10T02:44:45;100354.44;;;7.20;100.00
11114;BME280;5610;52.154;9.198;2023-01-10T02:47:35;100366.34;;;7.11;100.00
11114;BME280;5610;52.154;9.198;2023-01-10T02:50:29;100368.06;;;7.29;100.00
11114;BME280;5610;52.154;9.198;2023-01-10T02:53:18;100362.22;;;7.23;100.00
11114;BME280;5610;52.154;9.198;2023-01-10T02:56:23;100365.19;;;7.34;100.00
11114;BME280;5610;52.154;9.198;2023-01-10T02:59:28;100372.72;;;7.41;100.00
11114;BME280;5610;52.154;9.198;2023-01-10T03:02:30;100372.84;;;7.56;100.00
11114;BME280;5610;52.154;9.198;2023-01-10T03:05:30;100370.34;;;7.53;100.00
11114;BME280;5610;52.154;9.198;2023-01-10T03:08:27;100377.81;;;7.62;100.00
11114;BME280;5610;52.154;9.198;2023-01-10T03:11:16;100383.03;;;7.63;100.00
11114;BME280;5610;52.154;9.198;2023-01-10T03:14:24;100386.53;;;7.64;100.00
11114;BME280;5610;52.154;9.198;2023-01-10T03:17:11;100384.03;;;7.61;100.00
11114;BME280;5610;52.154;9.198;2023-01-10T03:20:00;100398.31;;;7.58;100.00
11114;BME280;5610;52.154;9.198;2023-01-10T03:22:50;100409.16;;;7.54;100.00
11114;BME280;5610;52.154;9.198;2023-01-10T03:25:37;100409.88;;;7.57;100.00
11114;BME280;5610;52.154;9.198;2023-01-10T03:28:29;100409.78;;;7.59;100.00
11114;BME280;5610;52.154;9.198;2023-01-10T03:31:17;100412.63;;;7.38;100.00
11114;BME280;5610;52.154;9.198;2023-01-10T03:34:05;100426.59;;;7.42;100.00
11114;BME280;5610;52.154;9.198;2023-01-10T03:36:57;100434.28;;;7.47;100.00
11114;BME280;5610;52.154;9.198;2023-01-10T03:39:52;100431.19;;;7.38;100.00
11114;BME280;5610;52.154;9.198;2023-01-10T03:42:45;100436.41;;;7.23;100.00
11114;BME280;5610;52.154;9.198;2023-01-10T03:45:53;100443.03;;;7.31;100.00
11114;BME280;5610;52.154;9.198;2023-01-10T03:48:43;100446.84;;;7.26;100.00
11114;BME280;5610;52.154;9.198;2023-01-10T03:51:31;100447.88;;;7.23;100.00
11114;BME280;5610;52.154;9.198;2023-01-10T03:54:16;100447.88;;;7.23;100.00
11114;BME280;5610;52.154;9.198;2023-01-10T03:57:04;100454.03;;;7.24;100.00
11114;BME280;5610;52.154;9.198;2023-01-10T03:59:52;100448.81;;;7.22;100.00
11114;BME280;5610;52.154;9.198;2023-01-10T04:02:38;100455.44;;;7.13;100.00
11114;BME280;5610;52.154;9.198;2023-01-10T04:05:23;100468.44;;;7.18;100.00
11114;BME280;5610;52.154;9.198;2023-01-10T04:08:08;100472.03;;;7.17;100.00
11114;BME280;5610;52.154;9.198;2023-01-10T04:10:54;100476.16;;;7.23;100.00
11114;BME280;5610;52.154;9.198;2023-01-10T04:13:41;100479.97;;;7.17;100.00
11114;BME280;5610;52.154;9.198;2023-01-10T04:16:26;100484.28;;;7.20;100.00
11114;BME280;5610;52.154;9.198;2023-01-10T04:19:11;100482.50;;;7.20;100.00
11114;BME280;5610;52.154;9.198;2023-01-10T04:21:57;100498.78;;;7.12;100.00
11114;BME280;5610;52.154;9.198;2023-01-10T04:24:42;100494.03;;;7.19;100.00
11114;BME280;5610;52.154;9.198;2023-01-10T04:27:29;100498.59;;;7.33;100.00
11114;BME280;5610;52.154;9.198;2023-01-10T04:30:17;100506.72;;;7.12;100.00
11114;BME280;5610;52.154;9.198;2023-01-10T04:33:03;100509.41;;;7.11;100.00
11114;BME280;5610;52.154;9.198;2023-01-10T04:35:50;100519.88;;;7.14;100.00
11114;BME280;5610;52.154;9.198;2023-01-10T04:38:36;100514.81;;;7.09;100.00
11114;BME280;5610;52.154;9.198;2023-01-10T04:41:21;100521.13;;;7.07;100.00
11114;BME280;5610;52.154;9.198;2023-01-10T04:44:07;100521.72;;;6.95;100.00
11114;BME280;5610;52.154;9.198;2023-01-10T04:46:53;100531.25;;;6.99;100.00
11114;BME280;5610;52.154;9.198;2023-01-10T04:49:39;100540.34;;;6.93;100.00
11114;BME280;5610;52.154;9.198;2023-01-10T04:52:24;100533.81;;;6.81;100.00
11114;BME280;5610;52.154;9.198;2023-01-10T04:55:11;100535.69;;;6.79;100.00
11114;BME280;5610;52.154;9.198;2023-01-10T04:57:56;100534.38;;;6.88;100.00
11114;BME280;5610;52.154;9.198;2023-01-10T05:00:42;100539.13;;;6.81;100.00
11114;BME280;5610;52.154;9.198;2023-01-10T05:03:29;100552.88;;;6.71;100.00
11114;BME280;5610;52.154;9.198;2023-01-10T05:06:14;100549.88;;;6.78;100.00
11114;BME280;5610;52.154;9.198;2023-01-10T05:08:59;100558.47;;;6.65;100.00
11114;BME280;5610;52.154;9.198;2023-01-10T05:11:44;100555.28;;;6.75;100.00
11114;BME280;5610;52.154;9.198;2023-01-10T05:14:30;100549.41;;;6.69;100.00
11114;BME280;5610;52.154;9.198;2023-01-10T05:17:15;100561.59;;;6.54;100.00
11114;BME280;5610;52.154;9.198;2023-01-10T05:20:03;100557.69;;;6.63;100.00
11114;BME280;5610;52.154;9.198;2023-01-10T05:22:48;100569.25;;;6.60;100.00
11114;BME280;5610;52.154;9.198;2023-01-10T05:25:33;100569.41;;;6.57;100.00
11114;BME280;5610;52.154;9.198;2023-01-10T05:28:18;100575.63;;;6.56;100.00
11114;BME280;5610;52.154;9.198;2023-01-10T05:31:05;100587.09;;;6.56;100.00
11114;BME280;5610;52.154;9.198;2023-01-10T05:33:50;100595.44;;;6.66;100.00
11114;BME280;5610;52.154;9.198;2023-01-10T05:36:37;100600.66;;;6.68;100.00
11114;BME280;5610;52.154;9.198;2023-01-10T05:39:22;100611.25;;;6.68;100.00
11114;BME280;5610;52.154;9.198;2023-01-10T05:42:08;100623.63;;;6.67;100.00
11114;BME280;5610;52.154;9.198;2023-01-10T05:44:53;100620.56;;;6.76;100.00
11114;BME280;5610;52.154;9.198;2023-01-10T05:47:39;100619.66;;;6.77;100.00
11114;BME280;5610;52.154;9.198;2023-01-10T05:50:24;100627.75;;;6.93;100.00
11114;BME280;5610;52.154;9.198;2023-01-10T05:53:11;100620.38;;;7.00;100.00
11114;BME280;5610;52.154;9.198;2023-01-10T05:55:57;100629.94;;;7.02;100.00
11114;BME280;5610;52.154;9.198;2023-01-10T05:58:43;100644.22;;;7.00;100.00
11114;BME280;5610;52.154;9.198;2023-01-10T06:01:29;100645.84;;;7.02;100.00
11114;BME280;5610;52.154;9.198;2023-01-10T06:04:14;100649.06;;;7.09;100.00
11114;BME280;5610;52.154;9.198;2023-01-10T06:06:59;100657.66;;;7.14;100.00
11114;BME280;5610;52.154;9.198;2023-01-10T06:09:46;100653.81;;;7.21;100.00
11114;BME280;5610;52.154;9.198;2023-01-10T06:12:33;100652.22;;;7.17;100.00
11114;BME280;5610;52.154;9.198;2023-01-10T06:15:19;100656.44;;;7.21;100.00
11114;BME280;5610;52.154;9.198;2023-01-10T06:18:05;100658.09;;;7.24;100.00
11114;BME280;5610;52.154;9.198;2023-01-10T06:20:51;100661.63;;;7.05;100.00
11114;BME280;5610;52.154;9.198;2023-01-10T06:23:36;100677.41;;;7.26;100.00
11114;BME280;5610;52.154;9.198;2023-01-10T06:26:23;100678.44;;;7.23;100.00
11114;BME280;5610;52.154;9.198;2023-01-10T06:29:09;100691.13;;;7.35;100.00
11114;BME280;5610;52.154;9.198;2023-01-10T06:31:54;100691.19;;;7.34;100.00
11114;BME280;5610;52.154;9.198;2023-01-10T06:34:40;100692.78;;;7.19;100.00
11114;BME280;5610;52.154;9.198;2023-01-10T06:37:25;100692.34;;;7.28;100.00
11114;BME280;5610;52.154;9.198;2023-01-10T06:40:11;100689.97;;;7.22;100.00
11114;BME280;5610;52.154;9.198;2023-01-10T06:42:57;100687.88;;;7.10;100.00
11114;BME280;5610;52.154;9.198;2023-01-10T06:45:43;100701.63;;;7.18;100.00
11114;BME280;5610;52.154;9.198;2023-01-10T06:48:28;100715.22;;;7.10;100.00
11114;BME280;5610;52.154;9.198;2023-01-10T06:51:14;100716.53;;;7.21;100.00
11114;BME280;5610;52.154;9.198;2023-01-10T06:54:00;100721.97;;;7.18;100.00
11114;BME280;5610;52.154;9.198;2023-01-10T06:56:46;100736.22;;;7.15;100.00
11114;BME280;5610;52.154;9.198;2023-01-10T06:59:32;100750.75;;;7.25;100.00
11114;BME280;5610;52.154;9.198;2023-01-10T07:02:18;100746.28;;;7.27;100.00
11114;BME280;5610;52.154;9.198;2023-01-10T07:05:03;100747.06;;;7.29;100.00
11114;BME280;5610;52.154;9.198;2023-01-10T07:07:49;100754.56;;;7.38;100.00
11114;BME280;5610;52.154;9.198;2023-01-10T07:10:34;100756.00;;;7.46;100.00
11114;BME280;5610;52.154;9.198;2023-01-10T07:13:20;100749.50;;;7.34;100.00
11114;BME280;5610;52.154;9.198;2023-01-10T07:16:08;100758.66;;;7.27;100.00
11114;BME280;5610;52.154;9.198;2023-01-10T07:18:54;100761.00;;;7.33;100.00
11114;BME280;5610;52.154;9.198;2023-01-10T07:21:39;100760.22;;;7.31;100.00
11114;BME280;5610;52.154;9.198;2023-01-10T07:24:24;100769.53;;;7.21;100.00
11114;BME280;5610;52.154;9.198;2023-01-10T07:27:10;100770.63;;;7.35;100.00
11114;BME280;5610;52.154;9.198;2023-01-10T07:29:55;100756.56;;;7.14;100.00
11114;BME280;5610;52.154;9.198;2023-01-10T07:32:42;100769.75;;;7.16;100.00
11114;BME280;5610;52.154;9.198;2023-01-10T07:35:27;100759.94;;;7.18;100.00
11114;BME280;5610;52.154;9.198;2023-01-10T07:38:12;100764.16;;;7.22;100.00
11114;BME280;5610;52.154;9.198;2023-01-10T07:41:00;100766.38;;;7.31;100.00
11114;BME280;5610;52.154;9.198;2023-01-10T07:43:45;100773.34;;;7.34;100.00
11114;BME280;5610;52.154;9.198;2023-01-10T07:46:32;100778.66;;;7.34;100.00
11114;BME280;5610;52.154;9.198;2023-01-10T07:49:18;100788.75;;;7.44;100.00
11114;BME280;5610;52.154;9.198;2023-01-10T07:52:04;100793.78;;;7.51;100.00
11114;BME280;5610;52.154;9.198;2023-01-10T07:54:51;100804.38;;;7.51;100.00
11114;BME280;5610;52.154;9.198;2023-01-10T07:57:37;100794.69;;;7.31;100.00
11114;BME280;5610;52.154;9.198;2023-01-10T08:00:23;100804.44;;;7.30;100.00
11114;BME280;5610;52.154;9.198;2023-01-10T08:03:10;100820.50;;;7.46;100.00
11114;BME280;5610;52.154;9.198;2023-01-10T08:05:58;100823.72;;;7.34;100.00
11114;BME280;5610;52.154;9.198;2023-01-10T08:08:44;100822.44;;;7.42;100.00
11114;BME280;5610;52.154;9.198;2023-01-10T08:11:30;100825.94;;;7.43;100.00
11114;BME280;5610;52.154;9.198;2023-01-10T08:14:16;100821.56;;;7.61;100.00
11114;BME280;5610;52.154;9.198;2023-01-10T08:17:01;100830.41;;;7.61;100.00
11114;BME280;5610;52.154;9.198;2023-01-10T08:19:46;100851.13;;;7.72;100.00
11114;BME280;5610;52.154;9.198;2023-01-10T08:22:33;100837.00;;;7.90;100.00
11114;BME280;5610;52.154;9.198;2023-01-10T08:25:20;100810.97;;;7.98;100.00
11114;BME280;5610;52.154;9.198;2023-01-10T08:28:06;100807.19;;;7.85;100.00
11114;BME280;5610;52.154;9.198;2023-01-10T08:30:53;100809.19;;;7.80;100.00
11114;BME280;5610;52.154;9.198;2023-01-10T08:33:39;100809.97;;;7.63;100.00
11114;BME280;5610;52.154;9.198;2023-01-10T08:36:24;100815.00;;;7.69;100.00
11114;BME280;5610;52.154;9.198;2023-01-10T08:39:13;100818.59;;;7.68;100.00
11114;BME280;5610;52.154;9.198;2023-01-10T08:41:58;100827.91;;;7.58;100.00
11114;BME280;5610;52.154;9.198;2023-01-10T08:44:43;100832.78;;;7.49;100.00
11114;BME280;5610;52.154;9.198;2023-01-10T08:47:29;100824.59;;;7.72;100.00
11114;BME280;5610;52.154;9.198;2023-01-10T08:50:14;100837.59;;;7.78;100.00
11114;BME280;5610;52.154;9.198;2023-01-10T08:53:00;100828.97;;;7.92;100.00
11114;BME280;5610;52.154;9.198;2023-01-10T08:55:47;100832.22;;;8.16;100.00
11114;BME280;5610;52.154;9.198;2023-01-10T08:58:32;100841.53;;;8.43;100.00
11114;BME280;5610;52.154;9.198;2023-01-10T09:01:18;100858.19;;;8.47;100.00
11114;BME280;5610;52.154;9.198;2023-01-10T09:04:03;100854.69;;;8.64;100.00
11114;BME280;5610;52.154;9.198;2023-01-10T09:06:49;100866.38;;;8.60;100.00
11114;BME280;5610;52.154;9.198;2023-01-10T09:09:35;100873.19;;;8.29;100.00
11114;BME280;5610;52.154;9.198;2023-01-10T09:12:22;100877.28;;;8.36;100.00
11114;BME280;5610;52.154;9.198;2023-01-10T09:15:35;100882.66;;;8.35;100.00
11114;BME280;5610;52.154;9.198;2023-01-10T09:18:21;100883.69;;;8.13;100.00
11114;BME280;5610;52.154;9.198;2023-01-10T09:21:06;100890.69;;;8.14;100.00
11114;BME280;5610;52.154;9.198;2023-01-10T09:23:51;100894.22;;;8.15;100.00
11114;BME280;5610;52.154;9.198;2023-01-10T09:26:37;100896.88;;;8.15;100.00
11114;BME280;5610;52.154;9.198;2023-01-10T09:29:24;100888.69;;;8.01;100.00
11114;BME280;5610;52.154;9.198;2023-01-10T09:32:09;100898.81;;;7.92;100.00
11114;BME280;5610;52.154;9.198;2023-01-10T09:34:54;100903.47;;;7.68;100.00
11114;BME280;5610;52.154;9.198;2023-01-10T09:37:39;100913.50;;;7.62;100.00
11114;BME280;5610;52.154;9.198;2023-01-10T09:40:32;100904.56;;;7.83;100.00
11114;BME280;5610;52.154;9.198;2023-01-10T09:43:27;100916.59;;;7.90;100.00
11114;BME280;5610;52.154;9.198;2023-01-10T09:46:20;100915.66;;;7.91;100.00
11114;BME280;5610;52.154;9.198;2023-01-10T09:49:17;100916.59;;;7.90;100.00
11114;BME280;5610;52.154;9.198;2023-01-10T09:52:12;100920.25;;;8.07;100.00
11114;BME280;5610;52.154;9.198;2023-01-10T09:55:06;100916.38;;;8.14;100.00
11114;BME280;5610;52.154;9.198;2023-01-10T09:58:03;100918.31;;;8.10;100.00
11114;BME280;5610;52.154;9.198;2023-01-10T10:00:52;100914.97;;;8.07;100.00
11114;BME280;5610;52.154;9.198;2023-01-10T10:03:45;100925.28;;;8.13;100.00
11114;BME280;5610;52.154;9.198;2023-01-10T10:06:32;100914.44;;;8.17;100.00
11114;BME280;5610;52.154;9.198;2023-01-10T10:09:22;100919.81;;;8.16;100.00
11114;BME280;5610;52.154;9.198;2023-01-10T10:12:22;100927.44;;;8.42;100.00
11114;BME280;5610;52.154;9.198;2023-01-10T10:15:19;100935.34;;;8.44;100.00
11114;BME280;5610;52.154;9.198;2023-01-10T10:18:15;100928.50;;;8.57;100.00
11114;BME280;5610;52.154;9.198;2023-01-10T10:21:07;100928.28;;;8.62;100.00
11114;BME280;5610;52.154;9.198;2023-01-10T10:24:12;100925.03;;;8.74;100.00
11114;BME280;5610;52.154;9.198;2023-01-10T10:27:08;100933.88;;;8.56;100.00
11114;BME280;5610;52.154;9.198;2023-01-10T10:30:10;100917.47;;;8.47;100.00
11114;BME280;5610;52.154;9.198;2023-01-10T10:33:08;100923.41;;;8.52;100.00
11114;BME280;5610;52.154;9.198;2023-01-10T10:36:01;100929.41;;;8.75;100.00
11114;BME280;5610;52.154;9.198;2023-01-10T10:38:50;100922.38;;;8.74;100.00
11114;BME280;5610;52.154;9.198;2023-01-10T10:41:40;100918.59;;;8.61;100.00
11114;BME280;5610;52.154;9.198;2023-01-10T10:44:32;100916.16;;;8.56;100.00
11114;BME280;5610;52.154;9.198;2023-01-10T10:47:22;100922.03;;;8.63;100.00
11114;BME280;5610;52.154;9.198;2023-01-10T10:50:17;100930.66;;;8.68;100.00
11114;BME280;5610;52.154;9.198;2023-01-10T10:53:05;100924.41;;;8.86;100.00
11114;BME280;5610;52.154;9.198;2023-01-10T10:55:52;100923.41;;;8.89;100.00
11114;BME280;5610;52.154;9.198;2023-01-10T10:58:39;100926.09;;;8.70;100.00
11114;BME280;5610;52.154;9.198;2023-01-10T11:01:26;100929.81;;;8.85;100.00
11114;BME280;5610;52.154;9.198;2023-01-10T11:04:14;100920.13;;;8.84;100.00
11114;BME280;5610;52.154;9.198;2023-01-10T11:07:00;100924.09;;;8.92;100.00
11114;BME280;5610;52.154;9.198;2023-01-10T11:09:46;100915.44;;;9.06;100.00
11114;BME280;5610;52.154;9.198;2023-01-10T11:12:37;100931.38;;;9.06;100.00
11114;BME280;5610;52.154;9.198;2023-01-10T11:15:34;100923.47;;;9.39;100.00
11114;BME280;5610;52.154;9.198;2023-01-10T11:18:21;100928.53;;;9.61;100.00
11114;BME280;5610;52.154;9.198;2023-01-10T11:21:11;100924.97;;;9.78;100.00
11114;BME280;5610;52.154;9.198;2023-01-10T11:23:57;100915.38;;;9.91;100.00
11114;BME280;5610;52.154;9.198;2023-01-10T11:26:43;100925.34;;;10.03;100.00
11114;BME280;5610;52.154;9.198;2023-01-10T11:29:36;100924.63;;;9.84;100.00
11114;BME280;5610;52.154;9.198;2023-01-10T11:32:30;100930.28;;;9.45;100.00
11114;BME280;5610;52.154;9.198;2023-01-10T11:35:19;100924.31;;;8.88;100.00
11114;BME280;5610;52.154;9.198;2023-01-10T11:38:17;100922.31;;;9.10;100.00
11114;BME280;5610;52.154;9.198;2023-01-10T11:41:04;100917.72;;;8.96;100.00
11114;BME280;5610;52.154;9.198;2023-01-10T11:43:49;100917.38;;;9.20;100.00
11114;BME280;5610;52.154;9.198;2023-01-10T11:46:36;100909.91;;;9.44;100.00
11114;BME280;5610;52.154;9.198;2023-01-10T11:49:32;100917.94;;;9.26;100.00
11114;BME280;5610;52.154;9.198;2023-01-10T11:52:21;100912.56;;;9.11;100.00
11114;BME280;5610;52.154;9.198;2023-01-10T11:55:08;100902.44;;;9.00;100.00
11114;BME280;5610;52.154;9.198;2023-01-10T11:57:57;100911.59;;;9.29;100.00
11114;BME280;5610;52.154;9.198;2023-01-10T12:00:45;100908.03;;;9.63;100.00
11114;BME280;5610;52.154;9.198;2023-01-10T12:03:34;100910.47;;;9.83;100.00
11114;BME280;5610;52.154;9.198;2023-01-10T12:06:23;100913.91;;;9.85;100.00
11114;BME280;5610;52.154;9.198;2023-01-10T12:09:31;100909.63;;;10.14;100.00
11114;BME280;5610;52.154;9.198;2023-01-10T12:12:18;100903.41;;;10.47;100.00
11114;BME280;5610;52.154;9.198;2023-01-10T12:15:21;100892.28;;;10.70;100.00
11114;BME280;5610;52.154;9.198;2023-01-10T12:18:09;100893.91;;;10.73;100.00
11114;BME280;5610;52.154;9.198;2023-01-10T12:20:57;100908.13;;;10.26;100.00
11114;BME280;5610;52.154;9.198;2023-01-10T12:23:44;100900.34;;;10.22;100.00
11114;BME280;5610;52.154;9.198;2023-01-10T12:26:31;100902.31;;;9.86;100.00
11114;BME280;5610;52.154;9.198;2023-01-10T12:29:21;100907.38;;;9.91;100.00
11114;BME280;5610;52.154;9.198;2023-01-10T12:32:14;100901.72;;;10.30;100.00
11114;BME280;5610;52.154;9.198;2023-01-10T12:35:05;100903.72;;;10.57;100.00
11114;BME280;5610;52.154;9.198;2023-01-10T12:38:03;100895.50;;;10.91;100.00
11114;BME280;5610;52.154;9.198;2023-01-10T12:40:54;100891.22;;;10.89;100.00
11114;BME280;5610;52.154;9.198;2023-01-10T12:43:43;100893.59;;;11.23;100.00
11114;BME280;5610;52.154;9.198;2023-01-10T12:46:57;100890.41;;;11.90;100.00
11114;BME280;5610;52.154;9.198;2023-01-10T12:49:49;100868.97;;;12.59;100.00
11114;BME280;5610;52.154;9.198;2023-01-10T12:52:40;100885.28;;;12.82;100.00
11114;BME280;5610;52.154;9.198;2023-01-10T12:55:33;100887.03;;;12.83;94.00
11114;BME280;5610;52.154;9.198;2023-01-10T12:58:22;100886.28;;;12.13;93.96
11114;BME280;5610;52.154;9.198;2023-01-10T13:01:13;100891.53;;;11.43;100.00
11114;BME280;5610;52.154;9.198;2023-01-10T13:04:02;100893.34;;;11.57;100.00
11114;BME280;5610;52.154;9.198;2023-01-10T13:06:49;100894.69;;;11.05;100.00
11114;BME280;5610;52.154;9.198;2023-01-10T13:09:35;100900.31;;;10.85;100.00
11114;BME280;5610;52.154;9.198;2023-01-10T13:12:27;100910.56;;;10.31;100.00
11114;BME280;5610;52.154;9.198;2023-01-10T13:15:20;100894.69;;;9.96;100.00
11114;BME280;5610;52.154;9.198;2023-01-10T13:18:16;100901.09;;;9.76;100.00
11114;BME280;5610;52.154;9.198;2023-01-10T13:21:04;100905.06;;;9.85;100.00
11114;BME280;5610;52.154;9.198;2023-01-10T13:23:52;100898.72;;;9.54;100.00
11114;BME280;5610;52.154;9.198;2023-01-10T13:26:48;100895.53;;;9.81;100.00
11114;BME280;5610;52.154;9.198;2023-01-10T13:29:40;100892.44;;;9.73;100.00
11114;BME280;5610;52.154;9.198;2023-01-10T13:32:28;100898.75;;;9.70;100.00
11114;BME280;5610;52.154;9.198;2023-01-10T13:35:16;100883.31;;;9.77;100.00
11114;BME280;5610;52.154;9.198;2023-01-10T13:38:02;100882.56;;;9.42;100.00
11114;BME280;5610;52.154;9.198;2023-01-10T13:40:59;100882.47;;;9.76;100.00
11114;BME280;5610;52.154;9.198;2023-01-10T13:44:08;100874.06;;;9.84;100.00
11114;BME280;5610;52.154;9.198;2023-01-10T13:46:55;100874.06;;;9.68;100.00
11114;BME280;5610;52.154;9.198;2023-01-10T13:49:42;100876.63;;;9.70;100.00
11114;BME280;5610;52.154;9.198;2023-01-10T13:52:30;100875.03;;;9.50;100.00
11114;BME280;5610;52.154;9.198;2023-01-10T13:55:49;100874.81;;;9.37;100.00
11114;BME280;5610;52.154;9.198;2023-01-10T13:58:41;100868.81;;;9.33;100.00
11114;BME280;5610;52.154;9.198;2023-01-10T14:01:49;100860.88;;;9.16;100.00
11114;BME280;5610;52.154;9.198;2023-01-10T14:04:56;100867.41;;;9.26;100.00
11114;BME280;5610;52.154;9.198;2023-01-10T14:07:44;100874.84;;;9.20;100.00
11114;BME280;5610;52.154;9.198;2023-01-10T14:10:31;100871.81;;;9.10;100.00
11114;BME280;5610;52.154;9.198;2023-01-10T14:13:20;100861.56;;;9.20;100.00
11114;BME280;5610;52.154;9.198;2023-01-10T14:16:26;100852.25;;;9.11;100.00
11114;BME280;5610;52.154;9.198;2023-01-10T14:19:22;100860.53;;;8.88;100.00
11114;BME280;5610;52.154;9.198;2023-01-10T14:22:24;100848.19;;;8.87;100.00
11114;BME280;5610;52.154;9.198;2023-01-10T14:25:17;100837.72;;;8.66;100.00
11114;BME280;5610;52.154;9.198;2023-01-10T14:28:04;100842.56;;;8.58;100.00
11114;BME280;5610;52.154;9.198;2023-01-10T14:31:02;100845.56;;;8.69;100.00
11114;BME280;5610;52.154;9.198;2023-01-10T14:33:48;100848.50;;;8.63;100.00
11114;BME280;5610;52.154;9.198;2023-01-10T14:36:48;100849.69;;;8.58;100.00
11114;BME280;5610;52.154;9.198;2023-01-10T14:39:39;100851.66;;;8.54;100.00
11114;BME280;5610;52.154;9.198;2023-01-10T14:42:26;100845.78;;;8.47;100.00
11114;BME280;5610;52.154;9.198;2023-01-10T14:45:25;100848.72;;;8.41;100.00
11114;BME280;5610;52.154;9.198;2023-01-10T14:48:27;100848.84;;;8.38;100.00
11114;BME280;5610;52.154;9.198;2023-01-10T14:51:18;100844.69;;;8.33;100.00
11114;BME280;5610;52.154;9.198;2023-01-10T14:54:10;100849.03;;;8.35;100.00
11114;BME280;5610;52.154;9.198;2023-01-10T14:56:57;100845.50;;;8.16;100.00
11114;BME280;5610;52.154;9.198;2023-01-10T14:59:43;100840.34;;;8.13;100.00
11114;BME280;5610;52.154;9.198;2023-01-10T15:02:28;100840.66;;;8.07;100.00